Time;durP1;ratioP1;P1;durP2;ratioP2;P2;SDS_P1;SDS_P2;PMS_P1;PMS_P2;Temp;Humidity;BMP_temperature;BMP_pressure;BME280_temperature;BME280_humidity;BME280_pressure;Samples;Min_cycle;Max_cycle;Signal;HPM_P1;HPM_P2
2022/08/20 00:03:20;;;;;;;8.93;6.10;;;;;;;;;;10258614;28;20099;-63
2022/08/20 00:08:22;;;;;;;;;;;;;;;;;;10259731;28;20061;-64
2022/08/20 00:13:23;;;;;;;10.98;5.80;;;;;;;;;;10265747;28;19960;-63
2022/08/20 00:18:22;;;;;;;12.27;6.93;;;;;;;;;;10257462;28;20065;-63
2022/08/20 00:23:21;;;;;;;10.63;5.82;;;;;;;;;;10258658;28;20068;-63
2022/08/20 00:28:20;;;;;;;9.48;5.75;;;;;;;;;;10257802;28;20069;-63
2022/08/20 00:33:21;;;;;;;9.15;5.88;;;;;;;;;;10257185;28;20532;-63
2022/08/20 00:38:19;;;;;;;9.45;6.50;;;;;;;;;;10257846;28;20073;-63
2022/08/20 00:43:26;;;;;;;10.43;6.00;;;;;;;;;;10256596;28;20084;-62
2022/08/20 00:48:27;;;;;;;15.40;6.53;;;;;;;;;;10257474;28;20108;-63
2022/08/20 00:53:27;;;;;;;10.55;6.57;;;;;;;;;;10263325;28;20125;-63
2022/08/20 00:58:26;;;;;;;11.38;6.18;;;;;;;;;;10256893;28;20510;-63
2022/08/20 01:03:26;;;;;;;13.93;6.80;;;;;;;;;;10276336;28;20067;-63
2022/08/20 01:08:25;;;;;;;9.98;7.45;;;;;;;;;;10266747;28;20482;-63
2022/08/20 01:13:26;;;;;;;12.10;6.82;;;;;;;;;;10256521;28;20061;-63
2022/08/20 01:18:27;;;;;;;11.98;6.20;;;;;;;;;;10255922;28;20469;-63
2022/08/20 01:23:31;;;;;;;14.65;7.15;;;;;;;;;;10261457;28;20067;-63
2022/08/20 01:28:35;;;;;;;7.93;5.65;;;;;;;;;;10255355;28;20061;-63
2022/08/20 01:33:32;;;;;;;;;;;;;;;;;;10257275;28;20048;-65
2022/08/20 01:38:31;;;;;;;18.35;6.05;;;;;;;;;;10255850;28;19963;-65
2022/08/20 01:43:29;;;;;;;13.40;6.45;;;;;;;;;;10254496;28;20125;-65
2022/08/20 01:48:35;;;;;;;7.28;6.40;;;;;;;;;;10256839;28;20061;-65
2022/08/20 01:53:36;;;;;;;9.73;6.70;;;;;;;;;;10255448;28;20041;-65
2022/08/20 01:58:35;;;;;;;10.18;6.55;;;;;;;;;;10254027;28;20069;-65
2022/08/20 02:03:35;;;;;;;12.25;6.50;;;;;;;;;;10254464;28;20525;-65
2022/08/20 02:08:37;;;;;;;9.65;6.63;;;;;;;;;;10254438;28;20071;-65
2022/08/20 02:13:36;;;;;;;9.80;6.47;;;;;;;;;;10255001;28;20629;-65
2022/08/20 02:18:35;;;;;;;14.77;6.90;;;;;;;;;;10253406;28;20077;-65
2022/08/20 02:23:34;;;;;;;11.52;6.72;;;;;;;;;;10253429;28;20068;-65
2022/08/20 02:28:32;;;;;;;11.23;7.22;;;;;;;;;;10253876;28;20080;-65
2022/08/20 02:33:30;;;;;;;9.30;7.25;;;;;;;;;;10253523;28;20069;-65
2022/08/20 02:38:33;;;;;;;9.75;7.90;;;;;;;;;;10253130;28;20081;-65
2022/08/20 02:43:33;;;;;;;12.55;6.97;;;;;;;;;;10253790;28;20068;-65
2022/08/20 02:48:33;;;;;;;9.20;6.65;;;;;;;;;;10252676;28;20081;-65
2022/08/20 02:53:34;;;;;;;11.38;6.93;;;;;;;;;;10253842;28;20061;-65
2022/08/20 02:58:34;;;;;;;12.70;6.88;;;;;;;;;;10253252;28;20088;-64
2022/08/20 03:03:32;;;;;;;8.90;7.45;;;;;;;;;;10251980;28;20493;-65
2022/08/20 03:08:30;;;;;;;13.73;7.18;;;;;;;;;;10252628;28;20076;-65
2022/08/20 03:13:30;;;;;;;11.88;7.32;;;;;;;;;;10252139;28;20087;-64
2022/08/20 03:18:32;;;;;;;13.95;7.95;;;;;;;;;;10253058;28;20096;-65
2022/08/20 03:23:30;;;;;;;11.45;7.53;;;;;;;;;;10253653;28;20073;-65
2022/08/20 03:28:33;;;;;;;12.52;8.02;;;;;;;;;;10253011;28;20069;-64
2022/08/20 03:33:31;;;;;;;13.40;7.55;;;;;;;;;;10257903;28;20061;-65
2022/08/20 03:38:30;;;;;;;9.73;7.00;;;;;;;;;;10257458;28;20049;-65
2022/08/20 03:43:31;;;;;;;11.77;7.68;;;;;;;;;;10265124;28;20127;-65
2022/08/20 03:48:31;;;;;;;8.93;7.93;;;;;;;;;;10259450;28;20518;-65
2022/08/20 03:53:30;;;;;;;10.23;7.95;;;;;;;;;;10259623;28;20463;-65
2022/08/20 03:58:29;;;;;;;15.63;8.20;;;;;;;;;;10258541;28;20073;-65
2022/08/20 04:03:35;;;;;;;13.73;8.43;;;;;;;;;;10259424;28;20077;-65
2022/08/20 04:08:34;;;;;;;11.52;7.82;;;;;;;;;;10258673;28;20077;-65
2022/08/20 04:13:32;;;;;;;18.35;9.30;;;;;;;;;;10258332;28;20080;-65
2022/08/20 04:18:38;;;;;;;11.82;8.35;;;;;;;;;;10258466;28;20084;-65
2022/08/20 04:23:38;;;;;;;12.50;7.97;;;;;;;;;;10263625;28;20088;-65
2022/08/20 04:28:36;;;;;;;15.52;7.97;;;;;;;;;;10258116;28;20466;-65
2022/08/20 04:33:35;;;;;;;11.18;9.23;;;;;;;;;;10263007;28;20088;-65
2022/08/20 04:38:34;;;;;;;10.82;8.32;;;;;;;;;;10260608;28;20080;-65
2022/08/20 04:43:47;;;;;;;13.30;8.93;;;;;;;;;;10262496;28;20072;-65
2022/08/20 04:48:45;;;;;;;10.88;9.00;;;;;;;;;;10257905;28;20091;-65
2022/08/20 04:53:48;;;;;;;13.25;9.77;;;;;;;;;;10258363;28;20522;-66
2022/08/20 04:58:49;;;;;;;11.00;8.55;;;;;;;;;;10255303;28;20099;-65
2022/08/20 05:03:48;;;;;;;20.80;9.63;;;;;;;;;;10257720;28;20115;-66
2022/08/20 05:08:48;;;;;;;17.83;11.38;;;;;;;;;;10257637;28;20069;-65
2022/08/20 05:13:46;;;;;;;20.35;10.15;;;;;;;;;;10257044;28;20093;-66
2022/08/20 05:18:45;;;;;;;19.08;9.50;;;;;;;;;;10257871;28;20079;-65
2022/08/20 05:23:51;;;;;;;17.92;8.63;;;;;;;;;;10255812;28;20482;-65
2022/08/20 05:28:49;;;;;;;15.63;11.45;;;;;;;;;;10256302;28;20069;-66
2022/08/20 05:33:56;;;;;;;11.73;9.38;;;;;;;;;;10257390;28;20080;-66
2022/08/20 05:38:56;;;;;;;15.18;9.32;;;;;;;;;;10262172;28;20072;-66
2022/08/20 05:43:54;;;;;;;16.42;6.93;;;;;;;;;;10258798;28;20083;-65
2022/08/20 05:48:53;;;;;;;13.43;7.20;;;;;;;;;;10254768;28;20084;-65
2022/08/20 05:53:51;;;;;;;10.57;8.25;;;;;;;;;;10258600;28;20069;-64
2022/08/20 05:58:51;;;;;;;21.50;8.60;;;;;;;;;;10256885;28;20072;-64
2022/08/20 06:09:05;;;;;;;14.20;6.97;;;;;;;;;;10265304;28;20080;-65
2022/08/20 06:14:05;;;;;;;18.20;7.68;;;;;;;;;;10271030;28;20087;-66
2022/08/20 06:19:03;;;;;;;15.10;7.03;;;;;;;;;;10253406;28;20080;-66
2022/08/20 06:24:01;;;;;;;10.68;5.85;;;;;;;;;;10250978;28;20080;-66
2022/08/20 06:29:00;;;;;;;14.43;9.60;;;;;;;;;;10248479;28;20705;-65
2022/08/20 06:33:59;;;;;;;18.15;11.93;;;;;;;;;;10247306;28;20077;-65
2022/08/20 06:38:58;;;;;;;12.88;6.55;;;;;;;;;;10248380;28;20069;-65
2022/08/20 06:43:56;;;;;;;10.32;6.32;;;;;;;;;;10250796;28;20084;-66
2022/08/20 06:48:54;;;;;;;13.65;6.70;;;;;;;;;;10247245;28;20088;-65
2022/08/20 06:53:54;;;;;;;10.43;6.95;;;;;;;;;;10252920;28;20080;-65
2022/08/20 06:58:52;;;;;;;17.90;7.28;;;;;;;;;;10252532;28;20071;-65
2022/08/20 07:03:51;;;;;;;22.70;13.57;;;;;;;;;;10255072;28;20454;-66
2022/08/20 07:08:54;;;;;;;17.08;6.95;;;;;;;;;;10249484;28;20092;-65
2022/08/20 07:13:53;;;;;;;14.48;5.97;;;;;;;;;;10270980;28;20060;-65
2022/08/20 07:18:51;;;;;;;14.85;6.97;;;;;;;;;;10267292;28;20072;-66
2022/08/20 07:23:50;;;;;;;12.27;8.40;;;;;;;;;;10266996;28;20513;-66
2022/08/20 07:28:49;;;;;;;8.68;6.85;;;;;;;;;;10268264;28;20077;-66
2022/08/20 07:33:48;;;;;;;11.63;5.72;;;;;;;;;;10268046;28;20116;-65
2022/08/20 07:38:51;;;;;;;9.70;5.60;;;;;;;;;;10259098;28;20073;-65
2022/08/20 07:43:50;;;;;;;12.65;5.00;;;;;;;;;;10260920;28;20081;-66
2022/08/20 07:48:50;;;;;;;15.90;7.10;;;;;;;;;;10260499;28;20091;-66
2022/08/20 07:53:49;;;;;;;11.93;6.13;;;;;;;;;;10278571;28;20081;-66
2022/08/20 07:58:49;;;;;;;12.93;5.10;;;;;;;;;;10274887;28;20072;-68
2022/08/20 08:03:49;;;;;;;13.82;5.30;;;;;;;;;;10272761;28;20064;-65
2022/08/20 08:08:48;;;;;;;15.50;7.20;;;;;;;;;;10264880;28;20068;-65
2022/08/20 08:13:47;;;;;;;8.70;4.70;;;;;;;;;;10270144;28;20076;-65
2022/08/20 08:18:48;;;;;;;14.52;5.57;;;;;;;;;;10264622;28;20085;-66
2022/08/20 08:23:49;;;;;;;8.65;5.20;;;;;;;;;;10262131;28;20083;-66
2022/08/20 08:28:47;;;;;;;7.78;4.45;;;;;;;;;;10257778;28;20068;-66
2022/08/20 08:33:45;;;;;;;9.48;5.60;;;;;;;;;;10256811;28;20498;-65
2022/08/20 08:38:44;;;;;;;9.25;4.43;;;;;;;;;;10256669;28;20067;-65
2022/08/20 08:43:46;;;;;;;9.43;4.65;;;;;;;;;;10253673;28;20075;-66
2022/08/20 08:48:47;;;;;;;12.93;5.57;;;;;;;;;;10255671;28;20077;-66
2022/08/20 08:53:49;;;;;;;7.35;5.18;;;;;;;;;;10253768;28;20459;-66
2022/08/20 08:58:49;;;;;;;13.03;5.30;;;;;;;;;;10240913;28;20080;-67
2022/08/20 09:03:49;;;;;;;6.65;4.53;;;;;;;;;;10236868;28;20077;-66
2022/08/20 09:08:49;;;;;;;11.27;4.50;;;;;;;;;;10258302;28;20435;-66
2022/08/20 09:13:49;;;;;;;10.45;4.10;;;;;;;;;;10259610;28;20069;-64
2022/08/20 09:18:47;;;;;;;6.72;5.32;;;;;;;;;;10252039;28;20065;-64
2022/08/20 09:23:45;;;;;;;11.68;4.32;;;;;;;;;;10253301;28;20497;-64
2022/08/20 09:28:44;;;;;;;11.60;4.25;;;;;;;;;;10248018;28;20507;-65
2022/08/20 09:33:50;;;;;;;12.38;4.82;;;;;;;;;;10261670;28;20068;-65
2022/08/20 09:38:48;;;;;;;8.23;5.07;;;;;;;;;;10265447;28;20068;-64
2022/08/20 09:43:47;;;;;;;10.95;4.45;;;;;;;;;;10262126;28;20081;-64
2022/08/20 09:48:45;;;;;;;10.48;4.05;;;;;;;;;;10238411;28;20180;-65
2022/08/20 09:53:46;;;;;;;8.85;4.35;;;;;;;;;;10239467;28;20069;-64
2022/08/20 09:58:47;;;;;;;8.82;4.18;;;;;;;;;;10239214;28;20064;-64
2022/08/20 10:03:46;;;;;;;7.43;4.60;;;;;;;;;;10238053;28;20540;-65
2022/08/20 10:08:46;;;;;;;13.13;5.22;;;;;;;;;;10237465;28;20080;-65
2022/08/20 10:13:45;;;;;;;7.18;4.32;;;;;;;;;;10240480;28;20072;-65
2022/08/20 10:18:43;;;;;;;8.10;4.10;;;;;;;;;;10253242;28;20087;-64
2022/08/20 10:23:41;;;;;;;12.40;5.15;;;;;;;;;;10253793;28;20092;-65
2022/08/20 10:28:41;;;;;;;10.80;4.95;;;;;;;;;;10255725;28;20071;-64
2022/08/20 10:33:40;;;;;;;9.02;4.78;;;;;;;;;;10253773;28;20708;-64
2022/08/20 10:38:38;;;;;;;12.48;5.68;;;;;;;;;;10254057;28;20076;-64
2022/08/20 10:43:36;;;;;;;8.75;4.80;;;;;;;;;;10257235;28;20542;-65
2022/08/20 10:48:36;;;;;;;9.80;5.32;;;;;;;;;;10254465;28;20076;-65
2022/08/20 10:53:34;;;;;;;12.73;4.93;;;;;;;;;;10252045;28;20148;-64
2022/08/20 10:58:33;;;;;;;12.65;5.07;;;;;;;;;;10253216;28;20084;-64
2022/08/20 11:03:38;;;;;;;8.27;4.88;;;;;;;;;;10256155;28;20077;-64
2022/08/20 11:08:36;;;;;;;11.35;5.10;;;;;;;;;;10254479;28;20065;-65
2022/08/20 11:13:35;;;;;;;6.40;5.25;;;;;;;;;;10255075;28;20163;-65
2022/08/20 11:18:33;;;;;;;6.45;4.18;;;;;;;;;;10256047;28;20080;-64
2022/08/20 11:23:33;;;;;;;12.73;5.57;;;;;;;;;;10258223;28;20465;-65
2022/08/20 11:28:32;;;;;;;12.43;4.97;;;;;;;;;;10247341;28;20081;-63
2022/08/20 11:33:30;;;;;;;12.18;4.97;;;;;;;;;;10244968;28;20143;-63
2022/08/20 11:38:28;;;;;;;8.35;5.25;;;;;;;;;;10246956;28;20084;-63
2022/08/20 11:43:28;;;;;;;9.38;5.40;;;;;;;;;;10239715;28;20076;-64
2022/08/20 11:48:26;;;;;;;9.65;4.70;;;;;;;;;;10236132;28;20075;-64
2022/08/20 11:53:24;;;;;;;9.80;4.65;;;;;;;;;;10244926;28;20536;-65
2022/08/20 11:58:23;;;;;;;11.32;4.25;;;;;;;;;;10266008;28;20065;-65
2022/08/20 12:03:23;;;;;;;10.65;4.13;;;;;;;;;;10257879;28;20065;-64
2022/08/20 12:08:21;;;;;;;7.78;4.78;;;;;;;;;;10255833;28;20127;-65
2022/08/20 12:13:24;;;;;;;14.45;5.97;;;;;;;;;;10263011;28;20076;-65
2022/08/20 12:18:45;;;;;;;11.60;4.90;;;;;;;;;;10262550;28;20077;-65
2022/08/20 12:23:43;;;;;;;7.72;3.90;;;;;;;;;;10263308;28;20092;-65
2022/08/20 12:28:41;;;;;;;7.13;5.15;;;;;;;;;;10265252;28;20092;-65
2022/08/20 12:33:40;;;;;;;7.45;4.85;;;;;;;;;;10265112;28;20150;-65
2022/08/20 12:38:39;;;;;;;12.32;4.78;;;;;;;;;;10263771;28;20518;-65
2022/08/20 12:43:38;;;;;;;9.60;4.32;;;;;;;;;;10265057;28;20084;-66
2022/08/20 12:48:36;;;;;;;10.13;4.82;;;;;;;;;;10263910;28;20085;-66
2022/08/20 12:53:35;;;;;;;10.90;5.30;;;;;;;;;;10264406;28;20506;-65
2022/08/20 12:58:34;;;;;;;8.57;4.13;;;;;;;;;;10262334;28;20551;-65
2022/08/20 13:03:35;;;;;;;11.65;4.53;;;;;;;;;;10264063;28;20087;-65
2022/08/20 13:08:47;;;;;;;7.38;4.97;;;;;;;;;;10262735;28;20076;-65
2022/08/20 13:13:46;;;;;;;12.13;4.38;;;;;;;;;;10262723;28;20498;-64
2022/08/20 13:18:45;;;;;;;7.72;3.88;;;;;;;;;;10260471;28;20087;-66
2022/08/20 13:23:44;;;;;;;15.07;4.30;;;;;;;;;;10261997;28;20076;-66
2022/08/20 13:28:42;;;;;;;6.30;4.88;;;;;;;;;;10262039;28;20513;-66
2022/08/20 13:33:42;;;;;;;10.63;5.55;;;;;;;;;;10273138;28;20074;-66
2022/08/20 13:38:40;;;;;;;7.32;4.10;;;;;;;;;;10274136;28;20123;-66
2022/08/20 13:43:39;;;;;;;6.97;4.07;;;;;;;;;;10274741;28;20077;-66
2022/08/20 13:48:37;;;;;;;8.45;4.03;;;;;;;;;;10243388;28;20092;-65
2022/08/20 13:53:37;;;;;;;13.00;6.53;;;;;;;;;;10245133;28;20094;-64
2022/08/20 13:58:35;;;;;;;6.55;4.65;;;;;;;;;;10246348;28;20072;-64
2022/08/20 14:03:34;;;;;;;9.63;5.03;;;;;;;;;;10247989;28;20069;-65
2022/08/20 14:08:32;;;;;;;11.98;4.85;;;;;;;;;;10246675;28;20072;-65
2022/08/20 14:13:32;;;;;;;9.25;4.32;;;;;;;;;;10249418;28;20069;-64
2022/08/20 14:18:30;;;;;;;7.93;3.42;;;;;;;;;;10249672;28;20080;-64
2022/08/20 14:23:29;;;;;;;10.00;4.38;;;;;;;;;;10243379;28;20088;-64
2022/08/20 14:28:35;;;;;;;12.27;4.20;;;;;;;;;;10249845;28;20085;-64
2022/08/20 14:33:33;;;;;;;6.15;3.60;;;;;;;;;;10247560;28;20073;-64
2022/08/20 14:38:33;;;;;;;12.25;4.13;;;;;;;;;;10244527;28;20302;-64
2022/08/20 14:43:31;;;;;;;8.40;5.00;;;;;;;;;;10244645;28;20085;-64
2022/08/20 14:48:31;;;;;;;9.35;4.68;;;;;;;;;;10251572;28;20488;-65
2022/08/20 14:53:29;;;;;;;7.57;3.90;;;;;;;;;;10245764;28;20072;-65
2022/08/20 14:58:28;;;;;;;7.20;3.83;;;;;;;;;;10234741;28;20932;-66
2022/08/20 15:03:29;;;;;;;10.43;5.05;;;;;;;;;;10237556;28;20514;-64
2022/08/20 15:08:32;;;;;;;11.15;5.38;;;;;;;;;;10254999;28;20076;-64
2022/08/20 15:13:30;;;;;;;6.28;4.13;;;;;;;;;;10238406;28;20079;-64
2022/08/20 15:18:29;;;;;;;9.10;4.35;;;;;;;;;;10241269;28;20470;-64
2022/08/20 15:23:27;;;;;;;11.35;4.57;;;;;;;;;;10259140;28;20077;-64
2022/08/20 15:28:29;;;;;;;6.90;4.05;;;;;;;;;;10256663;28;20517;-64
2022/08/20 15:33:27;;;;;;;11.55;8.70;;;;;;;;;;10264361;28;20087;-64
2022/08/20 15:38:25;;;;;;;11.25;6.15;;;;;;;;;;10263679;28;20076;-63
2022/08/20 15:43:24;;;;;;;14.57;6.88;;;;;;;;;;10263034;28;20525;-63
2022/08/20 15:48:31;;;;;;;7.22;4.13;;;;;;;;;;10262779;28;20084;-63
2022/08/20 15:53:32;;;;;;;10.60;3.58;;;;;;;;;;10265943;28;20069;-63
2022/08/20 15:58:36;;;;;;;6.82;4.10;;;;;;;;;;10266427;28;20076;-64
2022/08/20 16:03:53;;;;;;;6.93;4.57;;;;;;;;;;10267134;28;20532;-63
2022/08/20 16:08:58;;;;;;;7.95;3.22;;;;;;;;;;10265793;28;20076;-64
2022/08/20 16:13:59;;;;;;;11.35;4.10;;;;;;;;;;10265048;28;20341;-64
2022/08/20 16:18:59;;;;;;;10.75;4.65;;;;;;;;;;10266809;28;20091;-64
2022/08/20 16:23:58;;;;;;;8.75;3.53;;;;;;;;;;10267528;28;20080;-65
2022/08/20 16:29:00;;;;;;;8.10;4.10;;;;;;;;;;10260400;28;20550;-69
2022/08/20 16:34:01;;;;;;;10.25;4.00;;;;;;;;;;10247499;28;20065;-66
2022/08/20 16:39:03;;;;;;;11.25;4.75;;;;;;;;;;10251368;28;20065;-66
2022/08/20 16:44:05;;;;;;;11.52;4.63;;;;;;;;;;10249560;28;20076;-67
2022/08/20 16:49:12;;;;;;;11.70;5.10;;;;;;;;;;10245337;28;20080;-65
2022/08/20 16:54:11;;;;;;;12.75;6.80;;;;;;;;;;10250518;28;20069;-66
2022/08/20 16:59:11;;;;;;;17.70;5.28;;;;;;;;;;10252236;28;20081;-69
2022/08/20 17:04:26;;;;;;;19.77;7.65;;;;;;;;;;10244932;28;20061;-67
2022/08/20 17:09:36;;;;;;;12.68;5.45;;;;;;;;;;10255191;28;20076;-68
2022/08/20 17:14:43;;;;;;;12.52;5.43;;;;;;;;;;10251724;28;20538;-67
2022/08/20 17:19:53;;;;;;;12.30;5.10;;;;;;;;;;10252849;28;20076;-67
2022/08/20 17:24:54;;;;;;;8.35;5.13;;;;;;;;;;10260745;28;20112;-67
2022/08/20 17:29:54;;;;;;;9.82;4.82;;;;;;;;;;10252834;28;20529;-65
2022/08/20 17:34:54;;;;;;;10.02;4.88;;;;;;;;;;10248165;28;20064;-67
2022/08/20 17:39:53;;;;;;;12.18;5.15;;;;;;;;;;10257592;28;20462;-67
2022/08/20 17:44:55;;;;;;;11.73;4.70;;;;;;;;;;10257289;28;20061;-65
2022/08/20 17:50:09;;;;;;;9.50;5.05;;;;;;;;;;10244517;28;20076;-64
2022/08/20 17:55:08;;;;;;;11.23;4.88;;;;;;;;;;10244749;28;20073;-65
2022/08/20 18:00:07;;;;;;;9.35;5.22;;;;;;;;;;10254123;28;20072;-64
2022/08/20 18:05:14;;;;;;;13.25;5.00;;;;;;;;;;10242559;28;20073;-64
2022/08/20 18:10:15;;;;;;;15.07;5.30;;;;;;;;;;10249393;28;20068;-64
2022/08/20 18:15:17;;;;;;;17.38;5.25;;;;;;;;;;10254769;28;20069;-68
2022/08/20 18:20:39;;;;;;;10.80;4.70;;;;;;;;;;10262762;28;20514;-65
2022/08/20 18:25:44;;;;;;;10.00;4.50;;;;;;;;;;10256349;28;20169;-66
2022/08/20 18:30:48;;;;;;;9.95;4.50;;;;;;;;;;10246471;28;20057;-67
2022/08/20 18:35:48;;;;;;;8.25;4.47;;;;;;;;;;10253499;28;20440;-66
2022/08/20 18:40:47;;;;;;;11.95;4.95;;;;;;;;;;10257946;28;20399;-66
2022/08/20 18:45:50;;;;;;;12.07;5.10;;;;;;;;;;10257662;28;20119;-66
2022/08/20 18:50:53;;;;;;;11.98;4.88;;;;;;;;;;10241662;28;20468;-65
2022/08/20 18:56:02;;;;;;;8.05;5.28;;;;;;;;;;10249846;28;20080;-65
2022/08/20 19:01:03;;;;;;;11.38;4.88;;;;;;;;;;10244281;28;20077;-64
2022/08/20 19:06:05;;;;;;;10.98;4.80;;;;;;;;;;10260462;28;20084;-66
2022/08/20 19:11:15;;;;;;;8.52;4.90;;;;;;;;;;10255690;28;20065;-66
2022/08/20 19:16:16;;;;;;;11.15;5.35;;;;;;;;;;10253184;28;20099;-65
2022/08/20 19:21:16;;;;;;;13.10;5.97;;;;;;;;;;10251523;28;20068;-65
2022/08/20 19:26:16;;;;;;;16.10;5.97;;;;;;;;;;10255339;28;20072;-64
2022/08/20 19:31:24;;;;;;;8.02;5.03;;;;;;;;;;10250350;28;20064;-65
2022/08/20 19:36:24;;;;;;;8.68;5.13;;;;;;;;;;10249606;28;20073;-65
2022/08/20 19:41:26;;;;;;;9.73;5.53;;;;;;;;;;10247431;28;20060;-64
2022/08/20 19:46:28;;;;;;;;;;;;;;;;;;10262790;28;20105;-64
2022/08/20 19:51:31;;;;;;;6.13;5.10;;;;;;;;;;10252949;28;19956;-65
2022/08/20 19:56:39;;;;;;;10.23;5.15;;;;;;;;;;10261765;28;20088;-65
2022/08/20 20:01:37;;;;;;;8.95;5.55;;;;;;;;;;10245483;28;20534;-66
2022/08/20 20:06:41;;;;;;;6.43;5.40;;;;;;;;;;10251290;28;20088;-66
2022/08/20 20:11:41;;;;;;;5.90;5.00;;;;;;;;;;10250426;28;20064;-66
2022/08/20 20:16:40;;;;;;;7.90;5.35;;;;;;;;;;10251172;28;20073;-66
2022/08/20 20:21:41;;;;;;;7.75;4.82;;;;;;;;;;10245836;28;20314;-67
2022/08/20 20:26:41;;;;;;;10.45;5.28;;;;;;;;;;10250686;28;20081;-67
2022/08/20 20:31:45;;;;;;;11.20;5.97;;;;;;;;;;10249074;28;20069;-66
2022/08/20 20:36:45;;;;;;;9.70;5.65;;;;;;;;;;10273587;28;20048;-65
2022/08/20 20:41:52;;;;;;;8.40;5.20;;;;;;;;;;10266830;28;20069;-65
2022/08/20 20:46:52;;;;;;;9.82;5.80;;;;;;;;;;10248914;28;20091;-64
2022/08/20 20:51:59;;;;;;;6.40;5.07;;;;;;;;;;10246486;28;20064;-65
2022/08/20 20:56:59;;;;;;;7.38;4.88;;;;;;;;;;10248151;28;20068;-64
2022/08/20 21:01:59;;;;;;;9.52;5.68;;;;;;;;;;10249034;28;20068;-64
2022/08/20 21:07:06;;;;;;;10.23;6.07;;;;;;;;;;10252589;28;20073;-66
2022/08/20 21:12:05;;;;;;;10.40;6.57;;;;;;;;;;10250425;28;20076;-65
2022/08/20 21:17:04;;;;;;;7.47;6.75;;;;;;;;;;10245037;28;20492;-65
2022/08/20 21:22:04;;;;;;;7.75;5.65;;;;;;;;;;10254962;28;20510;-65
2022/08/20 21:27:06;;;;;;;;;;;;;;;;;;10247835;28;20069;-66
2022/08/20 21:32:04;;;;;;;8.45;5.30;;;;;;;;;;10248377;28;19951;-66
2022/08/20 21:37:04;;;;;;;6.78;5.57;;;;;;;;;;10256457;28;20076;-66
2022/08/20 21:42:03;;;;;;;5.93;4.93;;;;;;;;;;10244160;28;20088;-66
2022/08/20 21:47:18;;;;;;;6.22;5.63;;;;;;;;;;10250328;28;20489;-66
2022/08/20 21:52:18;;;;;;;11.00;5.55;;;;;;;;;;10261905;28;20076;-64
2022/08/20 21:57:19;;;;;;;6.45;5.70;;;;;;;;;;10262828;28;20072;-65
2022/08/20 22:02:18;;;;;;;7.05;5.55;;;;;;;;;;10260320;28;20079;-65
2022/08/20 22:07:18;;;;;;;6.90;5.20;;;;;;;;;;10261528;28;20517;-65
2022/08/20 22:12:19;;;;;;;6.88;5.68;;;;;;;;;;10259469;28;20100;-65
2022/08/20 22:17:17;;;;;;;6.07;5.43;;;;;;;;;;10261433;28;20084;-65
2022/08/20 22:22:16;;;;;;;5.47;4.65;;;;;;;;;;10262378;28;20083;-65
2022/08/20 22:27:15;;;;;;;10.75;6.00;;;;;;;;;;10262837;28;20083;-65
2022/08/20 22:32:14;;;;;;;5.22;4.72;;;;;;;;;;10262117;28;20092;-65
2022/08/20 22:37:14;;;;;;;6.00;5.15;;;;;;;;;;10262260;28;20068;-65
2022/08/20 22:42:13;;;;;;;10.70;5.53;;;;;;;;;;10260274;28;20045;-65
2022/08/20 22:47:12;;;;;;;5.43;4.97;;;;;;;;;;10261596;28;20087;-65
2022/08/20 22:52:11;;;;;;;8.43;5.32;;;;;;;;;;10260960;28;20084;-65
2022/08/20 22:57:09;;;;;;;5.93;5.00;;;;;;;;;;10260647;28;20068;-65
2022/08/20 23:02:12;;;;;;;10.05;5.20;;;;;;;;;;10262037;28;20525;-65
2022/08/20 23:07:13;;;;;;;12.63;6.00;;;;;;;;;;10261937;28;20462;-66
2022/08/20 23:12:11;;;;;;;8.10;4.80;;;;;;;;;;10261918;28;20071;-66
2022/08/20 23:17:12;;;;;;;8.77;4.72;;;;;;;;;;10260630;28;20045;-65
2022/08/20 23:22:12;;;;;;;6.18;4.88;;;;;;;;;;10261894;28;20080;-65
2022/08/20 23:27:13;;;;;;;7.72;5.57;;;;;;;;;;10260528;28;20462;-66
2022/08/20 23:32:12;;;;;;;8.45;4.95;;;;;;;;;;10259189;28;20067;-65
2022/08/20 23:37:12;;;;;;;7.65;5.07;;;;;;;;;;10260656;28;20079;-64
2022/08/20 23:42:11;;;;;;;11.35;4.47;;;;;;;;;;10259477;28;20148;-65
2022/08/20 23:47:19;;;;;;;8.85;4.78;;;;;;;;;;10260424;28;20510;-65
2022/08/20 23:52:19;;;;;;;9.23;5.00;;;;;;;;;;10262508;28;20068;-65
2022/08/20 23:57:17;;;;;;;8.50;4.97;;;;;;;;;;10268104;28;20073;-65
